sensor_id;sensor_type;location;lat;lon;timestamp;P1;durP1;ratioP1;P2;durP2;ratioP2
77226;SDS011;66234;47.642;19.144;2023-12-20T00:00:15;29.27;;;12.30;;
77226;SDS011;66234;47.642;19.144;2023-12-20T00:03:18;34.50;;;13.83;;
77226;SDS011;66234;47.642;19.144;2023-12-20T00:06:21;35.28;;;12.48;;
77226;SDS011;66234;47.642;19.144;2023-12-20T00:09:23;31.83;;;11.90;;
77226;SDS011;66234;47.642;19.144;2023-12-20T00:12:26;34.90;;;12.10;;
77226;SDS011;66234;47.642;19.144;2023-12-20T00:15:28;21.88;;;10.35;;
77226;SDS011;66234;47.642;19.144;2023-12-20T00:18:31;29.85;;;12.23;;
77226;SDS011;66234;47.642;19.144;2023-12-20T00:21:33;29.15;;;10.93;;
77226;SDS011;66234;47.642;19.144;2023-12-20T00:24:36;35.43;;;10.40;;
77226;SDS011;66234;47.642;19.144;2023-12-20T00:27:38;40.10;;;11.32;;
77226;SDS011;66234;47.642;19.144;2023-12-20T00:30:41;42.78;;;12.85;;
77226;SDS011;66234;47.642;19.144;2023-12-20T00:33:44;34.88;;;11.80;;
77226;SDS011;66234;47.642;19.144;2023-12-20T00:36:49;35.13;;;12.00;;
77226;SDS011;66234;47.642;19.144;2023-12-20T00:39:52;38.22;;;11.77;;
77226;SDS011;66234;47.642;19.144;2023-12-20T00:42:54;44.30;;;13.10;;
77226;SDS011;66234;47.642;19.144;2023-12-20T00:45:57;36.63;;;10.70;;
77226;SDS011;66234;47.642;19.144;2023-12-20T00:49:02;31.58;;;11.38;;
77226;SDS011;66234;47.642;19.144;2023-12-20T00:52:05;29.33;;;11.93;;
77226;SDS011;66234;47.642;19.144;2023-12-20T00:55:07;35.95;;;12.55;;
77226;SDS011;66234;47.642;19.144;2023-12-20T00:58:10;29.17;;;12.20;;
77226;SDS011;66234;47.642;19.144;2023-12-20T01:01:13;30.65;;;11.70;;
77226;SDS011;66234;47.642;19.144;2023-12-20T01:04:16;39.25;;;12.80;;
77226;SDS011;66234;47.642;19.144;2023-12-20T01:07:18;30.57;;;11.13;;
77226;SDS011;66234;47.642;19.144;2023-12-20T01:10:21;24.58;;;11.43;;
77226;SDS011;66234;47.642;19.144;2023-12-20T01:13:25;35.67;;;11.23;;
77226;SDS011;66234;47.642;19.144;2023-12-20T01:16:27;31.40;;;13.90;;
77226;SDS011;66234;47.642;19.144;2023-12-20T01:19:30;36.03;;;13.27;;
77226;SDS011;66234;47.642;19.144;2023-12-20T01:22:33;39.40;;;13.57;;
77226;SDS011;66234;47.642;19.144;2023-12-20T01:25:37;35.55;;;13.85;;
77226;SDS011;66234;47.642;19.144;2023-12-20T01:28:41;34.87;;;13.70;;
77226;SDS011;66234;47.642;19.144;2023-12-20T01:31:43;29.38;;;12.93;;
77226;SDS011;66234;47.642;19.144;2023-12-20T01:34:46;36.88;;;12.57;;
77226;SDS011;66234;47.642;19.144;2023-12-20T01:37:50;34.75;;;12.32;;
77226;SDS011;66234;47.642;19.144;2023-12-20T01:40:53;28.45;;;12.05;;
77226;SDS011;66234;47.642;19.144;2023-12-20T01:43:56;28.90;;;11.52;;
77226;SDS011;66234;47.642;19.144;2023-12-20T01:46:58;30.85;;;12.25;;
77226;SDS011;66234;47.642;19.144;2023-12-20T01:50:02;37.13;;;12.23;;
77226;SDS011;66234;47.642;19.144;2023-12-20T01:53:07;28.50;;;11.13;;
77226;SDS011;66234;47.642;19.144;2023-12-20T01:56:11;27.48;;;12.05;;
77226;SDS011;66234;47.642;19.144;2023-12-20T01:59:14;38.70;;;13.17;;
77226;SDS011;66234;47.642;19.144;2023-12-20T02:02:16;28.77;;;13.05;;
77226;SDS011;66234;47.642;19.144;2023-12-20T02:05:19;33.15;;;12.80;;
77226;SDS011;66234;47.642;19.144;2023-12-20T02:08:23;36.90;;;13.38;;
77226;SDS011;66234;47.642;19.144;2023-12-20T02:11:26;32.80;;;12.20;;
77226;SDS011;66234;47.642;19.144;2023-12-20T02:14:28;34.67;;;13.57;;
77226;SDS011;66234;47.642;19.144;2023-12-20T02:17:31;28.25;;;12.57;;
77226;SDS011;66234;47.642;19.144;2023-12-20T02:20:35;31.37;;;11.87;;
77226;SDS011;66234;47.642;19.144;2023-12-20T02:23:37;27.42;;;12.70;;
77226;SDS011;66234;47.642;19.144;2023-12-20T02:26:40;33.50;;;12.50;;
77226;SDS011;66234;47.642;19.144;2023-12-20T02:29:47;35.97;;;12.27;;
77226;SDS011;66234;47.642;19.144;2023-12-20T02:32:50;31.60;;;13.15;;
77226;SDS011;66234;47.642;19.144;2023-12-20T02:35:54;41.38;;;12.95;;
77226;SDS011;66234;47.642;19.144;2023-12-20T02:38:57;35.25;;;13.68;;
77226;SDS011;66234;47.642;19.144;2023-12-20T02:42:00;38.83;;;13.47;;
77226;SDS011;66234;47.642;19.144;2023-12-20T02:45:02;38.03;;;12.45;;
77226;SDS011;66234;47.642;19.144;2023-12-20T02:48:05;38.15;;;11.70;;
77226;SDS011;66234;47.642;19.144;2023-12-20T02:51:08;38.63;;;12.45;;
77226;SDS011;66234;47.642;19.144;2023-12-20T02:54:11;41.53;;;13.47;;
77226;SDS011;66234;47.642;19.144;2023-12-20T02:57:13;37.67;;;13.55;;
77226;SDS011;66234;47.642;19.144;2023-12-20T03:00:16;33.30;;;12.52;;
77226;SDS011;66234;47.642;19.144;2023-12-20T03:03:19;35.42;;;12.70;;
77226;SDS011;66234;47.642;19.144;2023-12-20T03:06:21;40.13;;;13.03;;
77226;SDS011;66234;47.642;19.144;2023-12-20T03:09:24;49.03;;;12.30;;
77226;SDS011;66234;47.642;19.144;2023-12-20T03:12:26;37.53;;;12.00;;
77226;SDS011;66234;47.642;19.144;2023-12-20T03:15:29;36.43;;;13.03;;
77226;SDS011;66234;47.642;19.144;2023-12-20T03:18:31;31.33;;;11.57;;
77226;SDS011;66234;47.642;19.144;2023-12-20T03:21:34;30.77;;;11.80;;
77226;SDS011;66234;47.642;19.144;2023-12-20T03:24:37;42.33;;;12.82;;
77226;SDS011;66234;47.642;19.144;2023-12-20T03:27:39;28.93;;;11.50;;
77226;SDS011;66234;47.642;19.144;2023-12-20T03:30:42;28.30;;;11.88;;
77226;SDS011;66234;47.642;19.144;2023-12-20T03:33:45;35.20;;;12.45;;
77226;SDS011;66234;47.642;19.144;2023-12-20T03:36:47;34.10;;;12.38;;
77226;SDS011;66234;47.642;19.144;2023-12-20T03:39:50;25.50;;;10.90;;
77226;SDS011;66234;47.642;19.144;2023-12-20T03:42:52;35.70;;;13.50;;
77226;SDS011;66234;47.642;19.144;2023-12-20T03:45:55;38.55;;;12.27;;
77226;SDS011;66234;47.642;19.144;2023-12-20T03:48:58;33.80;;;12.60;;
77226;SDS011;66234;47.642;19.144;2023-12-20T03:52:03;25.02;;;10.15;;
77226;SDS011;66234;47.642;19.144;2023-12-20T03:55:06;30.40;;;10.93;;
77226;SDS011;66234;47.642;19.144;2023-12-20T03:58:08;41.55;;;13.10;;
77226;SDS011;66234;47.642;19.144;2023-12-20T04:01:11;26.70;;;10.27;;
77226;SDS011;66234;47.642;19.144;2023-12-20T04:04:14;29.75;;;12.38;;
77226;SDS011;66234;47.642;19.144;2023-12-20T04:07:17;39.92;;;12.55;;
77226;SDS011;66234;47.642;19.144;2023-12-20T04:10:20;35.20;;;12.47;;
77226;SDS011;66234;47.642;19.144;2023-12-20T04:13:23;36.65;;;12.32;;
77226;SDS011;66234;47.642;19.144;2023-12-20T04:16:26;35.15;;;12.65;;
77226;SDS011;66234;47.642;19.144;2023-12-20T04:19:28;33.30;;;13.68;;
77226;SDS011;66234;47.642;19.144;2023-12-20T04:22:31;34.83;;;13.47;;
77226;SDS011;66234;47.642;19.144;2023-12-20T04:25:34;38.35;;;13.77;;
77226;SDS011;66234;47.642;19.144;2023-12-20T04:28:37;33.13;;;13.15;;
77226;SDS011;66234;47.642;19.144;2023-12-20T04:31:40;35.95;;;14.25;;
77226;SDS011;66234;47.642;19.144;2023-12-20T04:34:43;34.70;;;13.35;;
77226;SDS011;66234;47.642;19.144;2023-12-20T04:37:45;37.15;;;13.43;;
77226;SDS011;66234;47.642;19.144;2023-12-20T04:40:49;34.25;;;12.68;;
77226;SDS011;66234;47.642;19.144;2023-12-20T04:43:52;37.43;;;13.40;;
77226;SDS011;66234;47.642;19.144;2023-12-20T04:46:55;32.20;;;12.73;;
77226;SDS011;66234;47.642;19.144;2023-12-20T04:49:58;27.63;;;11.32;;
77226;SDS011;66234;47.642;19.144;2023-12-20T04:53:01;33.88;;;12.85;;
77226;SDS011;66234;47.642;19.144;2023-12-20T04:56:04;37.15;;;12.75;;
77226;SDS011;66234;47.642;19.144;2023-12-20T04:59:07;35.35;;;12.40;;
77226;SDS011;66234;47.642;19.144;2023-12-20T05:02:10;37.33;;;12.45;;
77226;SDS011;66234;47.642;19.144;2023-12-20T05:05:12;36.53;;;11.93;;
77226;SDS011;66234;47.642;19.144;2023-12-20T05:08:17;41.40;;;12.30;;
77226;SDS011;66234;47.642;19.144;2023-12-20T05:11:20;35.75;;;13.05;;
77226;SDS011;66234;47.642;19.144;2023-12-20T05:14:23;31.95;;;12.73;;
77226;SDS011;66234;47.642;19.144;2023-12-20T05:17:27;41.00;;;12.80;;
77226;SDS011;66234;47.642;19.144;2023-12-20T05:20:30;46.92;;;14.10;;
77226;SDS011;66234;47.642;19.144;2023-12-20T05:23:33;44.40;;;13.10;;
77226;SDS011;66234;47.642;19.144;2023-12-20T05:26:35;39.50;;;13.00;;
77226;SDS011;66234;47.642;19.144;2023-12-20T05:29:38;37.72;;;14.07;;
77226;SDS011;66234;47.642;19.144;2023-12-20T05:32:41;33.42;;;12.68;;
77226;SDS011;66234;47.642;19.144;2023-12-20T05:35:44;44.97;;;14.68;;
77226;SDS011;66234;47.642;19.144;2023-12-20T05:38:46;32.80;;;14.00;;
77226;SDS011;66234;47.642;19.144;2023-12-20T05:41:49;42.20;;;13.85;;
77226;SDS011;66234;47.642;19.144;2023-12-20T05:44:51;29.50;;;10.75;;
77226;SDS011;66234;47.642;19.144;2023-12-20T05:47:57;47.80;;;13.30;;
77226;SDS011;66234;47.642;19.144;2023-12-20T05:51:01;47.60;;;13.57;;
77226;SDS011;66234;47.642;19.144;2023-12-20T05:54:04;44.50;;;14.00;;
77226;SDS011;66234;47.642;19.144;2023-12-20T05:57:07;31.27;;;11.57;;
77226;SDS011;66234;47.642;19.144;2023-12-20T06:00:10;32.13;;;12.85;;
77226;SDS011;66234;47.642;19.144;2023-12-20T06:03:15;35.20;;;12.82;;
77226;SDS011;66234;47.642;19.144;2023-12-20T06:06:18;44.50;;;14.35;;
77226;SDS011;66234;47.642;19.144;2023-12-20T06:09:20;37.13;;;12.40;;
77226;SDS011;66234;47.642;19.144;2023-12-20T06:12:23;38.15;;;13.32;;
77226;SDS011;66234;47.642;19.144;2023-12-20T06:15:26;44.35;;;14.85;;
77226;SDS011;66234;47.642;19.144;2023-12-20T06:18:28;55.97;;;13.93;;
77226;SDS011;66234;47.642;19.144;2023-12-20T06:21:31;36.50;;;12.97;;
77226;SDS011;66234;47.642;19.144;2023-12-20T06:24:34;24.73;;;10.90;;
77226;SDS011;66234;47.642;19.144;2023-12-20T06:27:37;56.70;;;13.10;;
77226;SDS011;66234;47.642;19.144;2023-12-20T06:30:40;35.97;;;14.00;;
77226;SDS011;66234;47.642;19.144;2023-12-20T06:33:43;54.10;;;12.38;;
77226;SDS011;66234;47.642;19.144;2023-12-20T06:36:46;35.50;;;12.85;;
77226;SDS011;66234;47.642;19.144;2023-12-20T06:39:51;35.10;;;12.07;;
77226;SDS011;66234;47.642;19.144;2023-12-20T06:42:54;44.73;;;12.00;;
77226;SDS011;66234;47.642;19.144;2023-12-20T06:46:10;56.60;;;13.73;;
77226;SDS011;66234;47.642;19.144;2023-12-20T06:49:14;20.27;;;9.30;;
77226;SDS011;66234;47.642;19.144;2023-12-20T06:52:17;34.73;;;13.67;;
77226;SDS011;66234;47.642;19.144;2023-12-20T06:55:20;39.53;;;15.13;;
77226;SDS011;66234;47.642;19.144;2023-12-20T06:58:23;35.63;;;14.40;;
77226;SDS011;66234;47.642;19.144;2023-12-20T07:01:26;35.30;;;12.20;;
77226;SDS011;66234;47.642;19.144;2023-12-20T07:04:30;44.87;;;13.50;;
77226;SDS011;66234;47.642;19.144;2023-12-20T07:07:33;43.17;;;13.30;;
77226;SDS011;66234;47.642;19.144;2023-12-20T07:10:36;53.33;;;13.43;;
77226;SDS011;66234;47.642;19.144;2023-12-20T07:13:39;57.40;;;13.68;;
77226;SDS011;66234;47.642;19.144;2023-12-20T07:16:42;49.73;;;14.23;;
77226;SDS011;66234;47.642;19.144;2023-12-20T07:19:46;62.67;;;14.65;;
77226;SDS011;66234;47.642;19.144;2023-12-20T07:22:49;46.03;;;14.63;;
77226;SDS011;66234;47.642;19.144;2023-12-20T07:25:53;29.77;;;11.32;;
77226;SDS011;66234;47.642;19.144;2023-12-20T07:28:56;47.33;;;15.32;;
77226;SDS011;66234;47.642;19.144;2023-12-20T07:31:59;64.88;;;14.88;;
77226;SDS011;66234;47.642;19.144;2023-12-20T07:35:02;62.35;;;13.43;;
77226;SDS011;66234;47.642;19.144;2023-12-20T07:38:05;40.23;;;13.27;;
77226;SDS011;66234;47.642;19.144;2023-12-20T07:41:10;41.90;;;11.73;;
77226;SDS011;66234;47.642;19.144;2023-12-20T07:44:13;51.13;;;11.85;;
77226;SDS011;66234;47.642;19.144;2023-12-20T07:47:18;39.83;;;12.35;;
77226;SDS011;66234;47.642;19.144;2023-12-20T07:50:24;46.37;;;14.67;;
77226;SDS011;66234;47.642;19.144;2023-12-20T07:53:28;49.97;;;13.63;;
77226;SDS011;66234;47.642;19.144;2023-12-20T07:56:31;46.25;;;13.40;;
77226;SDS011;66234;47.642;19.144;2023-12-20T07:59:34;34.53;;;12.43;;
77226;SDS011;66234;47.642;19.144;2023-12-20T08:02:36;24.80;;;11.55;;
77226;SDS011;66234;47.642;19.144;2023-12-20T08:05:40;54.00;;;13.02;;
77226;SDS011;66234;47.642;19.144;2023-12-20T08:08:43;69.50;;;20.52;;
77226;SDS011;66234;47.642;19.144;2023-12-20T08:11:47;61.13;;;16.10;;
77226;SDS011;66234;47.642;19.144;2023-12-20T08:14:50;43.63;;;13.38;;
77226;SDS011;66234;47.642;19.144;2023-12-20T08:17:53;46.03;;;14.18;;
77226;SDS011;66234;47.642;19.144;2023-12-20T08:20:56;30.40;;;11.13;;
77226;SDS011;66234;47.642;19.144;2023-12-20T08:23:59;45.40;;;13.63;;
77226;SDS011;66234;47.642;19.144;2023-12-20T08:27:03;42.22;;;13.80;;
77226;SDS011;66234;47.642;19.144;2023-12-20T08:30:10;46.65;;;14.25;;
77226;SDS011;66234;47.642;19.144;2023-12-20T08:33:14;32.97;;;11.67;;
77226;SDS011;66234;47.642;19.144;2023-12-20T08:36:19;43.97;;;13.32;;
77226;SDS011;66234;47.642;19.144;2023-12-20T08:39:24;44.33;;;11.68;;
77226;SDS011;66234;47.642;19.144;2023-12-20T08:42:27;31.25;;;12.65;;
77226;SDS011;66234;47.642;19.144;2023-12-20T08:45:33;37.37;;;12.60;;
77226;SDS011;66234;47.642;19.144;2023-12-20T08:48:36;37.60;;;10.83;;
77226;SDS011;66234;47.642;19.144;2023-12-20T08:51:40;29.88;;;11.93;;
77226;SDS011;66234;47.642;19.144;2023-12-20T08:54:43;35.22;;;12.25;;
77226;SDS011;66234;47.642;19.144;2023-12-20T08:57:47;44.20;;;12.67;;
77226;SDS011;66234;47.642;19.144;2023-12-20T09:00:50;36.20;;;12.32;;
77226;SDS011;66234;47.642;19.144;2023-12-20T09:03:53;42.10;;;17.27;;
77226;SDS011;66234;47.642;19.144;2023-12-20T09:06:59;38.58;;;15.57;;
77226;SDS011;66234;47.642;19.144;2023-12-20T09:10:03;42.60;;;20.88;;
77226;SDS011;66234;47.642;19.144;2023-12-20T09:13:06;46.25;;;18.13;;
77226;SDS011;66234;47.642;19.144;2023-12-20T09:16:09;29.48;;;12.55;;
77226;SDS011;66234;47.642;19.144;2023-12-20T09:19:12;32.93;;;12.23;;
77226;SDS011;66234;47.642;19.144;2023-12-20T09:22:15;42.55;;;11.32;;
77226;SDS011;66234;47.642;19.144;2023-12-20T09:25:18;40.38;;;13.20;;
77226;SDS011;66234;47.642;19.144;2023-12-20T09:28:21;40.42;;;15.90;;
77226;SDS011;66234;47.642;19.144;2023-12-20T09:31:24;32.13;;;12.57;;
77226;SDS011;66234;47.642;19.144;2023-12-20T09:34:27;38.43;;;12.10;;
77226;SDS011;66234;47.642;19.144;2023-12-20T09:37:31;40.97;;;13.68;;
77226;SDS011;66234;47.642;19.144;2023-12-20T09:40:34;42.28;;;13.45;;
77226;SDS011;66234;47.642;19.144;2023-12-20T09:43:38;40.07;;;12.43;;
77226;SDS011;66234;47.642;19.144;2023-12-20T09:46:43;40.13;;;12.93;;
77226;SDS011;66234;47.642;19.144;2023-12-20T09:49:46;36.83;;;14.13;;
77226;SDS011;66234;47.642;19.144;2023-12-20T09:52:50;43.42;;;14.68;;
77226;SDS011;66234;47.642;19.144;2023-12-20T09:55:57;56.93;;;14.00;;
77226;SDS011;66234;47.642;19.144;2023-12-20T09:59:02;36.50;;;14.03;;
77226;SDS011;66234;47.642;19.144;2023-12-20T10:02:05;36.83;;;14.05;;
77226;SDS011;66234;47.642;19.144;2023-12-20T10:05:16;42.85;;;15.68;;
77226;SDS011;66234;47.642;19.144;2023-12-20T10:08:23;41.17;;;14.43;;
77226;SDS011;66234;47.642;19.144;2023-12-20T10:11:26;43.43;;;13.37;;
77226;SDS011;66234;47.642;19.144;2023-12-20T10:14:30;38.63;;;13.07;;
77226;SDS011;66234;47.642;19.144;2023-12-20T10:17:33;35.35;;;13.63;;
77226;SDS011;66234;47.642;19.144;2023-12-20T10:20:36;37.15;;;13.63;;
77226;SDS011;66234;47.642;19.144;2023-12-20T10:23:39;34.83;;;14.87;;
77226;SDS011;66234;47.642;19.144;2023-12-20T10:26:42;41.33;;;15.90;;
77226;SDS011;66234;47.642;19.144;2023-12-20T10:29:45;39.17;;;14.90;;
77226;SDS011;66234;47.642;19.144;2023-12-20T10:32:48;27.30;;;11.93;;
77226;SDS011;66234;47.642;19.144;2023-12-20T10:35:51;34.33;;;14.52;;
77226;SDS011;66234;47.642;19.144;2023-12-20T10:38:55;27.97;;;13.13;;
77226;SDS011;66234;47.642;19.144;2023-12-20T10:42:00;36.20;;;13.77;;
77226;SDS011;66234;47.642;19.144;2023-12-20T10:45:03;31.77;;;13.52;;
77226;SDS011;66234;47.642;19.144;2023-12-20T10:48:06;44.03;;;15.40;;
77226;SDS011;66234;47.642;19.144;2023-12-20T10:51:10;32.70;;;14.73;;
77226;SDS011;66234;47.642;19.144;2023-12-20T10:54:13;43.55;;;17.73;;
77226;SDS011;66234;47.642;19.144;2023-12-20T10:57:16;44.58;;;17.17;;
77226;SDS011;66234;47.642;19.144;2023-12-20T11:00:21;41.45;;;19.00;;
77226;SDS011;66234;47.642;19.144;2023-12-20T11:03:25;40.37;;;19.77;;
77226;SDS011;66234;47.642;19.144;2023-12-20T11:10:11;49.33;;;21.15;;
77226;SDS011;66234;47.642;19.144;2023-12-20T11:13:23;45.80;;;18.10;;
77226;SDS011;66234;47.642;19.144;2023-12-20T11:16:32;52.67;;;17.73;;
77226;SDS011;66234;47.642;19.144;2023-12-20T11:22:55;48.88;;;20.48;;
77226;SDS011;66234;47.642;19.144;2023-12-20T11:25:59;46.13;;;19.58;;
77226;SDS011;66234;47.642;19.144;2023-12-20T11:32:40;43.47;;;19.10;;
77226;SDS011;66234;47.642;19.144;2023-12-20T11:35:43;45.53;;;20.85;;
77226;SDS011;66234;47.642;19.144;2023-12-20T11:38:55;45.92;;;20.95;;
77226;SDS011;66234;47.642;19.144;2023-12-20T11:42:04;36.23;;;15.80;;
77226;SDS011;66234;47.642;19.144;2023-12-20T11:45:08;50.23;;;20.70;;
77226;SDS011;66234;47.642;19.144;2023-12-20T11:48:13;34.60;;;15.45;;
77226;SDS011;66234;47.642;19.144;2023-12-20T11:51:17;43.13;;;19.00;;
77226;SDS011;66234;47.642;19.144;2023-12-20T11:54:20;46.07;;;20.37;;
77226;SDS011;66234;47.642;19.144;2023-12-20T11:57:22;40.13;;;19.00;;
77226;SDS011;66234;47.642;19.144;2023-12-20T12:00:27;43.53;;;18.67;;
77226;SDS011;66234;47.642;19.144;2023-12-20T12:03:30;39.72;;;15.85;;
77226;SDS011;66234;47.642;19.144;2023-12-20T12:06:33;46.65;;;20.30;;
77226;SDS011;66234;47.642;19.144;2023-12-20T12:09:36;45.77;;;20.23;;
77226;SDS011;66234;47.642;19.144;2023-12-20T12:12:39;73.10;;;28.57;;
77226;SDS011;66234;47.642;19.144;2023-12-20T12:15:42;46.42;;;22.08;;
77226;SDS011;66234;47.642;19.144;2023-12-20T12:18:45;61.30;;;27.13;;
77226;SDS011;66234;47.642;19.144;2023-12-20T12:21:50;59.42;;;26.80;;
77226;SDS011;66234;47.642;19.144;2023-12-20T12:24:54;55.73;;;26.90;;
77226;SDS011;66234;47.642;19.144;2023-12-20T12:27:57;49.57;;;25.63;;
77226;SDS011;66234;47.642;19.144;2023-12-20T12:31:00;54.10;;;24.60;;
77226;SDS011;66234;47.642;19.144;2023-12-20T12:34:03;51.22;;;21.77;;
77226;SDS011;66234;47.642;19.144;2023-12-20T12:37:06;53.67;;;24.15;;
77226;SDS011;66234;47.642;19.144;2023-12-20T12:40:09;33.07;;;16.53;;
77226;SDS011;66234;47.642;19.144;2023-12-20T12:43:15;33.10;;;15.37;;
77226;SDS011;66234;47.642;19.144;2023-12-20T12:46:17;36.70;;;19.70;;
77226;SDS011;66234;47.642;19.144;2023-12-20T12:49:20;46.08;;;24.25;;
77226;SDS011;66234;47.642;19.144;2023-12-20T12:52:26;38.05;;;21.50;;
77226;SDS011;66234;47.642;19.144;2023-12-20T12:55:29;34.33;;;20.53;;
77226;SDS011;66234;47.642;19.144;2023-12-20T12:58:32;46.30;;;21.90;;
77226;SDS011;66234;47.642;19.144;2023-12-20T13:01:35;18.95;;;10.90;;
77226;SDS011;66234;47.642;19.144;2023-12-20T13:04:38;18.50;;;8.32;;
77226;SDS011;66234;47.642;19.144;2023-12-20T13:07:41;11.95;;;6.40;;
77226;SDS011;66234;47.642;19.144;2023-12-20T13:10:48;24.43;;;12.13;;
77226;SDS011;66234;47.642;19.144;2023-12-20T13:13:51;12.70;;;6.87;;
77226;SDS011;66234;47.642;19.144;2023-12-20T13:16:54;12.45;;;7.35;;
77226;SDS011;66234;47.642;19.144;2023-12-20T13:19:57;16.40;;;9.35;;
77226;SDS011;66234;47.642;19.144;2023-12-20T13:23:00;18.92;;;9.95;;
77226;SDS011;66234;47.642;19.144;2023-12-20T13:26:03;11.07;;;6.07;;
77226;SDS011;66234;47.642;19.144;2023-12-20T13:29:05;14.43;;;7.20;;
77226;SDS011;66234;47.642;19.144;2023-12-20T13:32:08;8.93;;;5.10;;
77226;SDS011;66234;47.642;19.144;2023-12-20T13:35:11;5.78;;;2.97;;
77226;SDS011;66234;47.642;19.144;2023-12-20T13:38:14;6.20;;;3.35;;
77226;SDS011;66234;47.642;19.144;2023-12-20T13:41:17;5.97;;;2.97;;
77226;SDS011;66234;47.642;19.144;2023-12-20T13:44:19;5.53;;;2.40;;
77226;SDS011;66234;47.642;19.144;2023-12-20T13:47:22;7.45;;;3.53;;
77226;SDS011;66234;47.642;19.144;2023-12-20T13:50:26;6.28;;;3.25;;
77226;SDS011;66234;47.642;19.144;2023-12-20T13:53:29;7.15;;;3.55;;
77226;SDS011;66234;47.642;19.144;2023-12-20T13:56:32;6.13;;;3.43;;
77226;SDS011;66234;47.642;19.144;2023-12-20T13:59:48;5.70;;;3.03;;
77226;SDS011;66234;47.642;19.144;2023-12-20T14:02:50;4.47;;;2.25;;
77226;SDS011;66234;47.642;19.144;2023-12-20T14:05:53;4.00;;;2.30;;
77226;SDS011;66234;47.642;19.144;2023-12-20T14:08:55;3.75;;;1.40;;
77226;SDS011;66234;47.642;19.144;2023-12-20T14:11:58;2.07;;;1.40;;
77226;SDS011;66234;47.642;19.144;2023-12-20T14:15:01;2.70;;;1.67;;
77226;SDS011;66234;47.642;19.144;2023-12-20T14:18:04;3.50;;;1.90;;
77226;SDS011;66234;47.642;19.144;2023-12-20T14:21:11;3.55;;;1.95;;
77226;SDS011;66234;47.642;19.144;2023-12-20T14:24:13;1.90;;;1.02;;
77226;SDS011;66234;47.642;19.144;2023-12-20T14:27:19;2.77;;;1.63;;
77226;SDS011;66234;47.642;19.144;2023-12-20T14:30:24;3.10;;;1.97;;
77226;SDS011;66234;47.642;19.144;2023-12-20T14:33:27;5.05;;;2.00;;
77226;SDS011;66234;47.642;19.144;2023-12-20T14:36:30;2.47;;;1.40;;
77226;SDS011;66234;47.642;19.144;2023-12-20T14:39:33;4.88;;;2.90;;
77226;SDS011;66234;47.642;19.144;2023-12-20T14:42:35;4.43;;;2.83;;
77226;SDS011;66234;47.642;19.144;2023-12-20T14:45:38;6.37;;;3.40;;
77226;SDS011;66234;47.642;19.144;2023-12-20T14:48:40;6.20;;;3.80;;
77226;SDS011;66234;47.642;19.144;2023-12-20T14:51:44;4.43;;;2.78;;
77226;SDS011;66234;47.642;19.144;2023-12-20T14:54:46;4.40;;;2.38;;
77226;SDS011;66234;47.642;19.144;2023-12-20T14:57:49;5.27;;;2.57;;
77226;SDS011;66234;47.642;19.144;2023-12-20T15:00:52;4.33;;;2.30;;
77226;SDS011;66234;47.642;19.144;2023-12-20T15:03:54;6.55;;;3.17;;
77226;SDS011;66234;47.642;19.144;2023-12-20T15:06:58;6.55;;;3.95;;
77226;SDS011;66234;47.642;19.144;2023-12-20T15:10:01;6.40;;;3.53;;
77226;SDS011;66234;47.642;19.144;2023-12-20T15:13:03;5.23;;;2.83;;
77226;SDS011;66234;47.642;19.144;2023-12-20T15:16:06;7.87;;;4.07;;
77226;SDS011;66234;47.642;19.144;2023-12-20T15:19:09;4.38;;;2.80;;
77226;SDS011;66234;47.642;19.144;2023-12-20T15:22:12;4.43;;;2.63;;
77226;SDS011;66234;47.642;19.144;2023-12-20T15:25:14;5.32;;;3.20;;
77226;SDS011;66234;47.642;19.144;2023-12-20T15:28:23;4.60;;;2.53;;
77226;SDS011;66234;47.642;19.144;2023-12-20T15:31:26;5.13;;;3.33;;
77226;SDS011;66234;47.642;19.144;2023-12-20T15:34:30;6.85;;;3.10;;
77226;SDS011;66234;47.642;19.144;2023-12-20T15:37:32;5.93;;;3.17;;
77226;SDS011;66234;47.642;19.144;2023-12-20T15:40:35;7.68;;;3.38;;
77226;SDS011;66234;47.642;19.144;2023-12-20T15:43:37;8.97;;;4.50;;
77226;SDS011;66234;47.642;19.144;2023-12-20T15:46:40;5.70;;;2.73;;
77226;SDS011;66234;47.642;19.144;2023-12-20T15:49:43;6.68;;;3.55;;
77226;SDS011;66234;47.642;19.144;2023-12-20T15:52:48;6.22;;;3.33;;
77226;SDS011;66234;47.642;19.144;2023-12-20T15:55:50;12.65;;;6.80;;
77226;SDS011;66234;47.642;19.144;2023-12-20T15:58:53;3.97;;;2.50;;
77226;SDS011;66234;47.642;19.144;2023-12-20T16:01:56;5.67;;;3.57;;
77226;SDS011;66234;47.642;19.144;2023-12-20T16:04:59;6.90;;;2.70;;
77226;SDS011;66234;47.642;19.144;2023-12-20T16:08:02;5.40;;;2.95;;
77226;SDS011;66234;47.642;19.144;2023-12-20T16:11:05;5.20;;;2.55;;
77226;SDS011;66234;47.642;19.144;2023-12-20T16:14:08;6.33;;;3.50;;
77226;SDS011;66234;47.642;19.144;2023-12-20T16:17:15;6.27;;;3.70;;
77226;SDS011;66234;47.642;19.144;2023-12-20T16:20:19;5.90;;;3.22;;
77226;SDS011;66234;47.642;19.144;2023-12-20T16:23:22;6.75;;;3.85;;
77226;SDS011;66234;47.642;19.144;2023-12-20T16:26:24;5.07;;;2.55;;
77226;SDS011;66234;47.642;19.144;2023-12-20T16:29:27;6.77;;;3.80;;
77226;SDS011;66234;47.642;19.144;2023-12-20T16:32:29;3.63;;;2.60;;
77226;SDS011;66234;47.642;19.144;2023-12-20T16:35:32;4.10;;;2.15;;
77226;SDS011;66234;47.642;19.144;2023-12-20T16:38:34;6.82;;;4.20;;
77226;SDS011;66234;47.642;19.144;2023-12-20T16:41:37;5.93;;;3.65;;
77226;SDS011;66234;47.642;19.144;2023-12-20T16:44:40;6.90;;;3.80;;
77226;SDS011;66234;47.642;19.144;2023-12-20T16:47:42;3.37;;;2.17;;
77226;SDS011;66234;47.642;19.144;2023-12-20T16:50:45;4.53;;;3.22;;
77226;SDS011;66234;47.642;19.144;2023-12-20T16:53:48;5.47;;;3.95;;
77226;SDS011;66234;47.642;19.144;2023-12-20T16:56:50;4.70;;;3.20;;
77226;SDS011;66234;47.642;19.144;2023-12-20T16:59:54;2.97;;;2.20;;
77226;SDS011;66234;47.642;19.144;2023-12-20T17:02:57;2.60;;;2.07;;
77226;SDS011;66234;47.642;19.144;2023-12-20T17:05:59;8.30;;;4.78;;
77226;SDS011;66234;47.642;19.144;2023-12-20T17:09:02;7.13;;;4.40;;
77226;SDS011;66234;47.642;19.144;2023-12-20T17:12:05;8.52;;;4.88;;
77226;SDS011;66234;47.642;19.144;2023-12-20T17:15:10;8.47;;;5.37;;
77226;SDS011;66234;47.642;19.144;2023-12-20T17:18:13;12.43;;;7.17;;
77226;SDS011;66234;47.642;19.144;2023-12-20T17:21:16;10.63;;;7.30;;
77226;SDS011;66234;47.642;19.144;2023-12-20T17:24:19;10.10;;;5.90;;
77226;SDS011;66234;47.642;19.144;2023-12-20T17:27:22;11.90;;;5.82;;
77226;SDS011;66234;47.642;19.144;2023-12-20T17:30:25;12.57;;;7.40;;
77226;SDS011;66234;47.642;19.144;2023-12-20T17:33:28;15.67;;;8.57;;
77226;SDS011;66234;47.642;19.144;2023-12-20T17:36:31;16.52;;;8.82;;
77226;SDS011;66234;47.642;19.144;2023-12-20T17:39:33;12.40;;;8.13;;
77226;SDS011;66234;47.642;19.144;2023-12-20T17:42:37;10.98;;;8.07;;
77226;SDS011;66234;47.642;19.144;2023-12-20T17:45:39;9.47;;;7.60;;
77226;SDS011;66234;47.642;19.144;2023-12-20T17:48:43;11.20;;;6.80;;
77226;SDS011;66234;47.642;19.144;2023-12-20T17:51:46;9.98;;;5.95;;
77226;SDS011;66234;47.642;19.144;2023-12-20T17:54:49;8.02;;;5.43;;